Time;durP1;ratioP1;P1;durP2;ratioP2;P2;SDS_P1;SDS_P2;PMS_P1;PMS_P2;Temp;Humidity;BMP_temperature;BMP_pressure;BME280_temperature;BME280_humidity;BME280_pressure;Samples;Min_cycle;Max_cycle;Signal;HPM_P1;HPM_P2
2022/03/20 00:00:33;;;;;;;9.93;6.70;;;;;;;;;;5070886;28;20467;-83
2022/03/20 00:02:59;;;;;;;10.23;7.80;;;;;;;;;;5070762;28;20491;-82
2022/03/20 00:05:25;;;;;;;12.33;8.13;;;;;;;;;;5071874;28;20510;-83
2022/03/20 00:07:51;;;;;;;11.00;7.77;;;;;;;;;;5070463;28;20435;-83
2022/03/20 00:10:17;;;;;;;12.23;8.33;;;;;;;;;;5072173;28;20437;-82
2022/03/20 00:12:43;;;;;;;10.03;7.17;;;6.60;99.90;;;;;;5070811;28;20411;-82
2022/03/20 00:15:09;;;;;;;9.30;7.17;;;6.60;99.90;;;;;;5070541;28;20512;-82
2022/03/20 00:17:36;;;;;;;12.80;7.90;;;6.50;99.90;;;;;;5070681;28;20512;-83
2022/03/20 00:20:03;;;;;;;9.90;7.17;;;6.50;99.90;;;;;;5074158;28;20431;-82
2022/03/20 00:22:30;;;;;;;12.70;7.30;;;6.40;99.90;;;;;;5074556;28;20551;-82
2022/03/20 00:24:56;;;;;;;9.67;7.73;;;6.40;99.90;;;;;;5074912;28;20528;-82
2022/03/20 00:27:21;;;;;;;13.70;7.90;;;6.30;99.90;;;;;;5074662;28;20429;-83
2022/03/20 00:29:47;;;;;;;13.33;8.03;;;6.30;99.90;;;;;;5074557;28;20427;-83
2022/03/20 00:32:14;;;;;;;9.50;6.93;;;6.20;99.90;;;;;;5074665;28;20185;-82
2022/03/20 00:34:40;;;;;;;10.87;7.63;;;6.20;99.90;;;;;;5075899;28;20253;-82
2022/03/20 00:37:07;;;;;;;12.23;7.70;;;6.20;99.90;;;;;;5075692;28;20409;-83
2022/03/20 00:39:33;;;;;;;9.80;7.03;;;6.20;99.90;;;;;;5074454;28;20435;-81
2022/03/20 00:41:59;;;;;;;11.67;8.07;;;6.20;99.90;;;;;;5075899;28;20426;-82
2022/03/20 00:44:25;;;;;;;8.43;6.80;;;6.10;99.90;;;;;;5074412;28;20827;-82
2022/03/20 00:46:51;;;;;;;10.03;7.30;;;6.10;99.90;;;;;;5074252;28;20433;-81
2022/03/20 00:49:17;;;;;;;13.70;8.67;;;6.10;99.90;;;;;;5074604;28;20185;-82
2022/03/20 00:51:43;;;;;;;12.47;7.73;;;6.10;99.90;;;;;;5074216;28;20184;-83
2022/03/20 00:54:10;;;;;;;10.40;7.77;;;6.00;99.90;;;;;;5075591;28;20905;-82
2022/03/20 00:56:37;;;;;;;13.20;7.60;;;5.90;99.90;;;;;;5075314;28;20422;-83
2022/03/20 00:59:03;;;;;;;14.00;9.13;;;5.90;99.90;;;;;;5074304;28;20947;-82
2022/03/20 01:01:29;;;;;;;11.00;7.00;;;6.00;99.90;;;;;;5074282;28;20790;-82
2022/03/20 01:03:55;;;;;;;9.90;6.63;;;6.00;99.90;;;;;;5075315;28;20521;-83
2022/03/20 01:06:22;;;;;;;12.60;8.23;;;5.90;99.90;;;;;;5073847;28;20800;-81
2022/03/20 01:08:49;;;;;;;11.10;7.33;;;5.90;99.90;;;;;;5074007;28;20421;-82
2022/03/20 01:11:16;;;;;;;11.90;6.70;;;6.00;99.90;;;;;;5073887;28;20422;-83
2022/03/20 01:13:42;;;;;;;11.27;8.23;;;6.00;99.90;;;;;;5073959;28;20491;-82
2022/03/20 01:16:08;;;;;;;12.43;7.30;;;5.90;99.90;;;;;;5073769;28;20437;-82
2022/03/20 01:18:34;;;;;;;12.43;8.77;;;5.90;99.90;;;;;;5073863;28;20800;-83
2022/03/20 01:20:59;;;;;;;9.93;7.30;;;5.90;99.90;;;;;;5074006;28;20187;-82
2022/03/20 01:23:25;;;;;;;10.07;7.00;;;5.90;99.90;;;;;;5075127;28;20460;-83
2022/03/20 01:25:51;;;;;;;10.90;6.83;;;5.80;99.90;;;;;;5075082;28;20565;-82
2022/03/20 01:28:19;;;;;;;10.37;6.80;;;5.90;99.90;;;;;;5074888;28;20657;-83
2022/03/20 01:30:47;;;;;;;11.87;7.13;;;6.00;99.90;;;;;;5072954;28;20407;-82
2022/03/20 01:33:14;;;;;;;8.63;7.47;;;6.20;99.90;;;;;;5073561;28;20436;-82
2022/03/20 01:35:39;;;;;;;13.60;7.60;;;6.30;99.90;;;;;;5073353;28;20601;-83
2022/03/20 01:38:05;;;;;;;11.83;6.90;;;6.50;99.90;;;;;;5074593;28;20505;-83
2022/03/20 01:40:31;;;;;;;10.43;7.87;;;6.50;99.90;;;;;;5073778;28;20190;-82
2022/03/20 01:42:57;;;;;;;11.50;6.30;;;6.60;99.90;;;;;;5073397;28;20216;-82
2022/03/20 01:45:24;;;;;;;13.40;7.07;;;6.60;99.90;;;;;;5073387;28;20443;-82
2022/03/20 01:47:51;;;;;;;10.47;7.37;;;6.70;99.90;;;;;;5073251;28;20188;-82
2022/03/20 01:50:19;;;;;;;15.03;9.20;;;6.70;99.90;;;;;;5074320;28;20412;-82
2022/03/20 01:52:46;;;;;;;7.60;6.00;;;6.70;99.90;;;;;;5073276;28;20424;-83
2022/03/20 01:55:14;;;;;;;10.53;7.70;;;6.80;99.90;;;;;;5074336;28;20931;-82
2022/03/20 01:57:39;;;;;;;11.17;7.13;;;6.80;99.90;;;;;;5074293;28;20425;-83
2022/03/20 02:00:06;;;;;;;9.53;7.70;;;6.60;99.90;;;;;;5072973;28;20944;-82
2022/03/20 02:02:32;;;;;;;12.67;7.90;;;6.60;99.90;;;;;;5074369;28;20210;-82
2022/03/20 02:04:57;;;;;;;11.10;7.50;;;6.50;99.90;;;;;;5072713;28;20953;-83
2022/03/20 02:07:25;;;;;;;13.57;7.53;;;6.50;99.90;;;;;;5072873;28;20186;-82
2022/03/20 02:09:51;;;;;;;10.87;7.73;;;6.30;99.90;;;;;;5072894;28;20264;-83
2022/03/20 02:12:17;;;;;;;10.17;7.30;;;6.40;99.90;;;;;;5072971;28;20448;-83
2022/03/20 02:14:43;;;;;;;9.87;6.47;;;6.40;99.90;;;;;;5072791;28;20430;-83
2022/03/20 02:17:12;;;;;;;10.00;6.73;;;6.40;99.90;;;;;;5073794;28;20422;-82
2022/03/20 02:19:39;;;;;;;8.90;7.13;;;6.50;99.90;;;;;;5072778;28;20653;-83
2022/03/20 02:22:06;;;;;;;8.93;6.23;;;6.40;99.90;;;;;;5072609;28;20419;-83
2022/03/20 02:24:41;;;;;;;10.63;7.50;;;6.40;99.90;;;;;;5072500;28;20437;-81
2022/03/20 02:27:12;;;;;;;10.93;6.93;;;6.30;99.90;;;;;;5073707;28;20452;-82
2022/03/20 02:29:39;;;;;;;10.63;6.80;;;6.40;99.90;;;;;;5072500;28;20416;-82
2022/03/20 02:32:06;;;;;;;13.73;7.60;;;6.20;99.90;;;;;;5072467;28;20471;-82
2022/03/20 02:34:32;;;;;;;12.83;7.33;;;6.10;99.90;;;;;;5072426;28;20479;-82
2022/03/20 02:36:59;;;;;;;9.73;7.20;;;6.00;99.90;;;;;;5072106;28;20452;-82
2022/03/20 02:39:24;;;;;;;13.00;8.40;;;6.00;99.90;;;;;;5072136;28;20422;-82
2022/03/20 02:41:51;;;;;;;10.40;7.37;;;6.10;99.90;;;;;;5071517;28;20509;-83
2022/03/20 02:44:17;;;;;;;12.97;7.67;;;6.10;99.90;;;;;;5071696;28;20215;-82
2022/03/20 02:46:43;;;;;;;13.93;6.77;;;6.20;99.90;;;;;;5073157;28;20501;-82
2022/03/20 02:49:10;;;;;;;11.57;7.83;;;6.10;99.90;;;;;;5072178;28;20466;-82
2022/03/20 02:51:36;;;;;;;10.00;8.13;;;6.10;99.90;;;;;;5073497;28;20654;-82
2022/03/20 02:54:06;;;;;;;11.30;6.60;;;6.10;99.90;;;;;;5073192;28;20929;-82
2022/03/20 02:56:33;;;;;;;10.23;6.90;;;6.10;99.90;;;;;;5071691;28;20927;-82
2022/03/20 02:59:00;;;;;;;10.53;7.90;;;6.10;99.90;;;;;;5073208;28;20436;-83
2022/03/20 03:01:25;;;;;;;19.27;7.93;;;6.20;99.90;;;;;;5071731;28;20820;-82
2022/03/20 03:03:53;;;;;;;11.80;7.30;;;6.20;99.90;;;;;;5071436;28;20603;-82
2022/03/20 03:06:20;;;;;;;11.80;7.87;;;6.10;99.90;;;;;;5071396;28;20450;-83
2022/03/20 03:11:30;;;;;;;10.67;7.67;;;5.90;99.90;;;;;;5073163;28;20875;-82
2022/03/20 03:13:55;;;;;;;8.10;6.90;;;5.90;99.90;;;;;;5071314;28;20514;-82
2022/03/20 03:16:21;;;;;;;15.23;7.40;;;5.90;99.90;;;;;;5071333;28;20186;-82
2022/03/20 03:18:47;;;;;;;10.67;8.10;;;5.80;99.90;;;;;;5072710;28;20171;-83
2022/03/20 03:21:15;;;;;;;10.30;5.43;;;5.80;99.90;;;;;;5071465;28;20195;-82
2022/03/20 03:23:41;;;;;;;13.10;7.90;;;5.70;99.90;;;;;;5072590;28;20499;-82
2022/03/20 03:26:07;;;;;;;13.83;7.50;;;5.60;99.90;;;;;;5071112;28;20445;-82
2022/03/20 03:28:34;;;;;;;10.93;6.47;;;5.60;99.90;;;;;;5072400;28;20417;-82
2022/03/20 03:31:02;;;;;;;9.67;7.07;;;5.50;99.90;;;;;;5071034;28;20431;-82
2022/03/20 03:33:28;;;;;;;12.60;7.93;;;5.40;99.90;;;;;;5072419;28;20428;-82
2022/03/20 03:35:54;;;;;;;13.00;7.87;;;5.40;99.90;;;;;;5071012;28;20446;-83
2022/03/20 03:38:23;;;;;;;11.50;7.43;;;5.30;99.90;;;;;;5070935;28;20924;-82
2022/03/20 03:40:49;;;;;;;12.23;7.00;;;5.20;99.90;;;;;;5072326;28;20500;-83
2022/03/20 03:43:19;;;;;;;11.00;7.27;;;5.20;99.90;;;;;;5070958;28;20462;-82
2022/03/20 03:45:47;;;;;;;10.90;8.20;;;5.20;99.90;;;;;;5071954;28;20437;-82
2022/03/20 03:48:13;;;;;;;8.00;5.57;;;5.10;99.90;;;;;;5070768;28;20426;-83
2022/03/20 03:50:41;;;;;;;11.33;8.03;;;5.00;99.90;;;;;;5071049;28;20410;-84
2022/03/20 03:53:09;;;;;;;11.37;7.70;;;4.90;99.90;;;;;;5071872;28;20792;-84
2022/03/20 03:55:34;;;;;;;9.23;6.57;;;4.90;99.90;;;;;;5075182;28;20532;-84
2022/03/20 03:58:00;;;;;;;12.13;8.03;;;4.90;99.90;;;;;;5074488;28;20514;-81
2022/03/20 04:00:27;;;;;;;9.43;6.77;;;4.80;99.90;;;;;;5073776;28;20217;-83
2022/03/20 04:02:53;;;;;;;12.47;8.57;;;4.80;99.90;;;;;;5072651;28;20200;-81
2022/03/20 04:05:19;;;;;;;10.20;6.00;;;4.80;99.90;;;;;;5071329;28;20574;-84
2022/03/20 04:07:47;;;;;;;11.50;8.00;;;4.70;99.90;;;;;;5072404;28;20448;-84
2022/03/20 04:10:14;;;;;;;12.43;8.67;;;4.70;99.90;;;;;;5071496;28;20279;-83
2022/03/20 04:12:40;;;;;;;10.33;7.33;;;4.70;99.90;;;;;;5072792;28;20421;-82
2022/03/20 04:15:07;;;;;;;11.67;7.60;;;4.60;99.90;;;;;;5072267;28;20436;-83
2022/03/20 04:17:33;;;;;;;15.33;7.87;;;4.50;99.90;;;;;;5070914;28;20474;-81
2022/03/20 04:20:00;;;;;;;9.60;7.70;;;4.50;99.90;;;;;;5072278;28;20416;-82
2022/03/20 04:22:27;;;;;;;10.57;7.40;;;4.50;99.90;;;;;;5072122;28;20980;-83
2022/03/20 04:24:53;;;;;;;14.03;8.60;;;4.50;99.90;;;;;;5070921;28;20440;-83
2022/03/20 04:27:19;;;;;;;12.80;7.63;;;4.50;99.90;;;;;;5070921;28;20415;-83
2022/03/20 04:29:45;;;;;;;12.93;8.13;;;4.50;99.90;;;;;;5070951;28;20464;-82
2022/03/20 04:32:14;;;;;;;12.33;7.50;;;4.40;99.90;;;;;;5072704;28;20416;-83
2022/03/20 04:34:41;;;;;;;10.50;6.67;;;4.40;99.90;;;;;;5072059;28;20440;-82
2022/03/20 04:37:08;;;;;;;13.07;8.77;;;4.40;99.90;;;;;;5071044;28;20844;-82
2022/03/20 04:39:35;;;;;;;9.70;7.10;;;4.50;99.90;;;;;;5072415;28;20413;-84
2022/03/20 04:42:01;;;;;;;13.13;7.50;;;4.50;99.90;;;;;;5071099;28;20817;-83
2022/03/20 04:44:27;;;;;;;13.07;7.40;;;4.40;99.90;;;;;;5072060;28;20533;-82
2022/03/20 04:46:55;;;;;;;11.57;7.87;;;4.40;99.90;;;;;;5071946;28;20417;-83
2022/03/20 05:00:18;;;;;;;12.47;7.37;;;4.40;99.90;;;;;;5072509;28;20920;-82
2022/03/20 05:02:45;;;;;;;12.50;8.13;;;4.40;99.90;;;;;;5070812;28;20461;-83
2022/03/20 05:05:11;;;;;;;12.50;8.77;;;4.40;99.90;;;;;;5100327;23;20230;-70
2022/03/20 05:07:37;;;;;;;13.37;7.27;;;4.40;99.90;;;;;;5076475;28;20531;-67
2022/03/20 05:15:33;;;;;;;10.90;7.93;;;4.40;99.90;;;;;;5095218;28;20466;-67
2022/03/20 05:17:59;;;;;;;13.73;8.23;;;4.40;99.90;;;;;;5076378;28;20431;-67
2022/03/20 05:20:26;;;;;;;9.70;7.77;;;4.50;99.90;;;;;;5076810;28;20182;-67
2022/03/20 05:22:52;;;;;;;16.37;7.90;;;4.60;99.90;;;;;;5076689;28;20837;-67
2022/03/20 05:25:18;;;;;;;8.53;7.27;;;4.80;99.90;;;;;;5076682;28;20414;-66
2022/03/20 05:27:44;;;;;;;12.63;7.80;;;5.00;99.90;;;;;;5076367;28;20435;-67
2022/03/20 05:30:11;;;;;;;11.73;7.87;;;5.20;99.90;;;;;;5076669;28;20423;-66
2022/03/20 05:32:38;;;;;;;8.33;7.37;;;5.30;99.90;;;;;;5076542;28;20508;-66
2022/03/20 05:35:08;;;;;;;9.60;7.27;;;5.50;99.90;;;;;;5076283;28;20422;-66
2022/03/20 05:37:37;;;;;;;11.97;8.17;;;5.60;99.90;;;;;;5076199;28;20448;-66
2022/03/20 05:40:04;;;;;;;13.53;7.63;;;5.80;99.90;;;;;;5076295;28;20412;-67
2022/03/20 05:42:30;;;;;;;8.70;7.80;;;5.90;99.90;;;;;;5076335;28;20456;-67
2022/03/20 05:44:56;;;;;;;11.90;7.93;;;6.10;99.90;;;;;;5076085;28;20428;-66
2022/03/20 05:47:22;;;;;;;13.97;8.10;;;6.10;99.90;;;;;;5076037;28;20659;-66
2022/03/20 05:49:48;;;;;;;14.83;9.33;;;6.20;99.90;;;;;;5076123;28;20495;-66
2022/03/20 05:52:15;;;;;;;11.03;7.80;;;6.30;99.90;;;;;;5076139;28;20505;-66
2022/03/20 05:54:41;;;;;;;14.00;8.90;;;6.40;99.90;;;;;;5076070;28;20406;-66
2022/03/20 05:59:54;;;;;;;12.13;8.43;;;6.40;99.90;;;;;;5094385;28;20501;-67
2022/03/20 06:02:20;;;;;;;13.87;9.33;;;6.50;99.90;;;;;;5074770;28;20517;-66
2022/03/20 06:04:46;;;;;;;12.47;8.20;;;6.60;99.90;;;;;;5066681;28;20422;-66
2022/03/20 06:07:12;;;;;;;14.57;8.30;;;6.70;99.90;;;;;;5067212;28;20441;-67
2022/03/20 06:09:38;;;;;;;14.40;10.23;;;6.70;99.90;;;;;;5075793;28;20565;-67
2022/03/20 06:12:06;;;;;;;11.73;8.67;;;6.70;99.90;;;;;;5075560;28;20175;-67
2022/03/20 06:14:35;;;;;;;12.73;8.07;;;6.80;99.90;;;;;;5075645;28;20930;-68
2022/03/20 06:17:02;;;;;;;13.13;8.67;;;6.90;99.90;;;;;;5075069;28;20443;-66
2022/03/20 06:19:28;;;;;;;15.20;9.70;;;7.10;99.90;;;;;;5075607;28;20419;-66
2022/03/20 06:21:54;;;;;;;11.80;7.33;;;7.20;99.90;;;;;;5075443;28;20420;-67
2022/03/20 06:24:20;;;;;;;16.00;8.77;;;7.30;99.90;;;;;;5075306;28;20460;-68
2022/03/20 06:26:46;;;;;;;14.90;8.53;;;7.30;99.90;;;;;;5074999;28;20204;-67
2022/03/20 06:29:12;;;;;;;13.43;9.33;;;7.30;99.90;;;;;;5075432;28;20546;-66
2022/03/20 06:31:38;;;;;;;16.20;9.60;;;7.40;99.90;;;;;;5075256;28;20173;-66
2022/03/20 06:34:04;;;;;;;14.90;9.20;;;7.50;99.90;;;;;;5075287;28;20191;-67
2022/03/20 06:36:30;;;;;;;12.77;9.73;;;7.50;99.90;;;;;;5075131;28;20443;-67
2022/03/20 06:38:56;;;;;;;14.67;9.20;;;7.50;99.90;;;;;;5075075;28;20520;-67
2022/03/20 06:41:22;;;;;;;12.50;8.27;;;7.60;99.90;;;;;;5075068;28;21008;-67
2022/03/20 06:43:50;;;;;;;14.37;8.20;;;7.60;99.90;;;;;;5074959;28;20209;-66
2022/03/20 06:46:16;;;;;;;15.90;9.87;;;7.70;99.90;;;;;;5074888;28;20436;-66
2022/03/20 06:48:42;;;;;;;15.83;9.77;;;7.80;99.90;;;;;;5074890;28;20835;-66
2022/03/20 06:51:07;;;;;;;14.10;10.07;;;7.90;99.90;;;;;;5075352;28;20409;-67
2022/03/20 06:53:34;;;;;;;13.23;8.83;;;8.10;99.90;;;;;;5074824;28;20182;-67
2022/03/20 06:56:00;;;;;;;15.17;9.00;;;8.10;99.90;;;;;;5074725;28;20190;-67
2022/03/20 06:58:27;;;;;;;16.60;9.50;;;8.20;99.90;;;;;;5074774;28;20419;-67
2022/03/20 07:00:53;;;;;;;17.43;9.70;;;8.20;99.90;;;;;;5074849;28;20421;-67
2022/03/20 07:03:20;;;;;;;14.90;8.90;;;8.20;99.90;;;;;;5074671;28;20830;-67
2022/03/20 07:05:46;;;;;;;16.00;9.80;;;8.20;99.90;;;;;;5074555;28;20464;-66
2022/03/20 07:08:13;;;;;;;13.40;8.80;;;8.20;99.90;;;;;;5073868;28;20436;-67
2022/03/20 07:10:39;;;;;;;13.97;9.00;;;8.40;99.90;;;;;;5074517;28;20408;-67
2022/03/20 07:15:57;;;;;;;16.50;9.50;;;8.60;99.00;;;;;;5092989;28;20415;-66
2022/03/20 07:18:23;;;;;;;17.30;9.00;;;8.60;96.40;;;;;;5074279;28;20903;-66
2022/03/20 07:20:48;;;;;;;12.20;8.47;;;8.50;96.30;;;;;;5074378;28;20930;-67
2022/03/20 07:23:15;;;;;;;12.90;8.70;;;8.30;95.90;;;;;;5074228;28;20464;-66
2022/03/20 07:31:11;;;;;;;15.20;9.93;;;8.40;96.50;;;;;;5093156;28;20403;-66
2022/03/20 07:33:39;;;;;;;18.00;10.10;;;8.60;97.00;;;;;;5074149;28;20409;-66
2022/03/20 07:36:06;;;;;;;20.10;10.50;;;8.70;95.70;;;;;;5074038;28;20424;-66
2022/03/20 07:38:32;;;;;;;15.27;10.03;;;8.90;96.90;;;;;;5073892;28;20419;-66
2022/03/20 07:40:58;;;;;;;14.13;8.90;;;9.00;96.20;;;;;;5074222;28;20830;-66
2022/03/20 07:43:26;;;;;;;15.53;10.60;;;9.00;95.40;;;;;;5073918;28;20513;-67
2022/03/20 07:45:52;;;;;;;14.10;8.87;;;9.10;95.90;;;;;;5073815;28;20420;-66
2022/03/20 07:48:21;;;;;;;14.73;9.97;;;9.10;94.60;;;;;;5073965;28;20858;-66
2022/03/20 07:50:49;;;;;;;19.30;9.70;;;9.20;94.00;;;;;;5073885;28;20412;-66
2022/03/20 07:53:17;;;;;;;11.47;9.33;;;9.20;95.00;;;;;;5073989;28;20777;-66
2022/03/20 07:55:43;;;;;;;13.07;9.17;;;9.30;93.30;;;;;;5073783;28;21013;-66
2022/03/20 07:58:09;;;;;;;15.83;9.30;;;9.40;93.30;;;;;;5073558;28;20616;-66
2022/03/20 08:00:37;;;;;;;13.90;9.53;;;9.30;92.10;;;;;;5073748;28;20538;-66
2022/03/20 08:03:05;;;;;;;19.70;9.93;;;9.30;91.90;;;;;;5073787;28;20210;-67
2022/03/20 08:05:30;;;;;;;17.73;10.00;;;9.20;92.40;;;;;;5073599;28;20460;-66
2022/03/20 08:07:56;;;;;;;15.17;10.23;;;9.30;92.70;;;;;;5073476;28;20914;-66
2022/03/20 08:10:22;;;;;;;14.60;9.47;;;9.30;92.00;;;;;;5073677;28;20174;-66
2022/03/20 08:12:48;;;;;;;15.00;9.47;;;9.30;92.60;;;;;;5069058;28;20320;-66
2022/03/20 08:15:16;;;;;;;16.80;10.33;;;9.40;93.20;;;;;;5068535;28;20189;-66
2022/03/20 08:17:44;;;;;;;14.47;9.90;;;9.40;92.70;;;;;;5064901;28;20218;-65
2022/03/20 08:20:10;;;;;;;11.70;8.73;;;9.50;91.80;;;;;;5065221;28;20797;-65
2022/03/20 08:22:37;;;;;;;21.17;10.17;;;9.50;91.80;;;;;;5073487;28;21046;-65
2022/03/20 08:25:03;;;;;;;15.80;9.67;;;9.60;92.60;;;;;;5073802;28;20420;-66
2022/03/20 08:27:29;;;;;;;15.37;11.57;;;9.60;90.90;;;;;;5073265;28;20482;-66
2022/03/20 08:29:57;;;;;;;18.60;10.17;;;9.70;91.30;;;;;;5066607;28;20417;-66
2022/03/20 08:32:24;;;;;;;17.47;10.50;;;9.90;90.50;;;;;;5053264;28;20429;-65
2022/03/20 08:34:50;;;;;;;14.10;9.70;;;10.00;89.00;;;;;;5053568;28;20830;-67
2022/03/20 08:37:16;;;;;;;16.83;10.00;;;10.20;88.30;;;;;;5053329;28;20429;-66
2022/03/20 08:39:42;;;;;;;17.60;10.70;;;10.40;88.30;;;;;;5054494;28;20175;-66
2022/03/20 08:42:08;;;;;;;15.40;11.17;;;10.50;88.70;;;;;;5057376;28;21127;-65
2022/03/20 08:44:34;;;;;;;18.20;11.87;;;10.60;88.70;;;;;;5057278;28;20214;-66
2022/03/20 08:47:00;;;;;;;15.57;11.53;;;10.70;84.80;;;;;;5057080;28;20429;-66
2022/03/20 08:49:26;;;;;;;16.30;11.07;;;10.60;82.90;;;;;;5067533;28;20487;-65
2022/03/20 08:51:52;;;;;;;15.60;9.90;;;10.60;82.70;;;;;;5071878;28;20415;-66
2022/03/20 08:54:17;;;;;;;17.37;10.60;;;10.60;84.20;;;;;;5077169;28;20174;-67
2022/03/20 08:56:43;;;;;;;20.13;12.07;;;10.70;83.40;;;;;;5076956;28;20557;-66
2022/03/20 08:59:09;;;;;;;19.80;10.80;;;10.80;83.40;;;;;;5077008;28;20186;-65
2022/03/20 09:01:35;;;;;;;17.60;10.60;;;10.90;81.80;;;;;;5077599;28;20211;-67
2022/03/20 09:04:01;;;;;;;21.10;10.67;;;11.20;81.50;;;;;;5076948;28;20565;-68
2022/03/20 09:06:28;;;;;;;20.87;10.87;;;11.40;80.60;;;;;;5076675;28;20452;-66
2022/03/20 09:08:53;;;;;;;19.77;11.07;;;11.60;80.60;;;;;;5076861;28;20415;-66
2022/03/20 09:11:21;;;;;;;12.43;9.70;;;11.60;78.90;;;;;;5076703;28;20427;-66
2022/03/20 09:13:46;;;;;;;20.10;12.40;;;11.70;76.30;;;;;;5076871;28;20652;-66
2022/03/20 09:19:18;;;;;;;16.50;10.77;;;12.20;76.60;;;;;;5032385;28;20250;-67
2022/03/20 09:21:44;;;;;;;15.27;10.80;;;12.50;74.30;;;;;;5015653;28;20528;-66
2022/03/20 09:24:10;;;;;;;19.23;11.20;;;12.70;74.30;;;;;;5044263;28;20464;-67
2022/03/20 09:26:36;;;;;;;16.37;11.77;;;12.80;72.00;;;;;;5076304;28;20810;-66
2022/03/20 09:29:03;;;;;;;15.70;11.03;;;13.00;70.80;;;;;;5076836;28;20420;-66
2022/03/20 09:31:31;;;;;;;16.20;12.20;;;13.00;70.90;;;;;;5076410;28;20185;-66
2022/03/20 09:33:57;;;;;;;14.43;10.00;;;13.40;70.00;;;;;;5076385;28;20416;-66
2022/03/20 09:36:23;;;;;;;17.10;10.90;;;13.50;66.30;;;;;;5076200;28;20490;-66
2022/03/20 09:38:50;;;;;;;17.00;11.20;;;13.60;66.90;;;;;;5076329;28;20923;-66
2022/03/20 09:41:17;;;;;;;17.43;10.20;;;13.40;64.60;;;;;;5076476;28;20581;-68
2022/03/20 09:43:44;;;;;;;16.50;11.20;;;13.50;66.30;;;;;;5076168;28;20456;-66
2022/03/20 09:46:10;;;;;;;20.27;12.70;;;14.00;66.20;;;;;;5076060;28;20416;-67
2022/03/20 09:48:36;;;;;;;16.77;12.10;;;14.30;63.50;;;;;;5075881;28;20416;-68
2022/03/20 09:51:04;;;;;;;15.77;10.73;;;14.70;62.30;;;;;;5075686;28;20189;-66
2022/03/20 09:53:30;;;;;;;17.50;10.60;;;15.20;59.20;;;;;;5075957;28;20416;-66
2022/03/20 09:55:57;;;;;;;22.10;12.67;;;15.60;59.40;;;;;;5075879;28;20422;-67
2022/03/20 09:58:28;;;;;;;18.30;11.73;;;16.30;57.50;;;;;;5075950;28;20474;-66
2022/03/20 10:00:55;;;;;;;16.93;12.17;;;16.90;53.90;;;;;;5076029;28;20417;-66
2022/03/20 10:03:24;;;;;;;16.40;11.67;;;17.30;52.70;;;;;;5075617;28;20497;-66
2022/03/20 10:06:15;;;;;;;16.60;12.60;;;17.60;51.10;;;;;;5075755;28;20432;-68
2022/03/20 10:08:56;;;;;;;17.97;12.87;;;18.40;51.00;;;;;;5075609;28;20558;-66
2022/03/20 10:11:22;;;;;;;23.47;13.20;;;19.20;48.30;;;;;;5073008;28;20464;-67
2022/03/20 10:14:23;;;;;;;20.70;12.87;;;19.70;46.10;;;;;;5073076;28;20467;-67
2022/03/20 10:16:50;;;;;;;18.83;13.17;;;20.50;45.30;;;;;;5074691;28;20229;-67
2022/03/20 10:19:22;;;;;;;16.17;13.00;;;21.20;42.70;;;;;;5075369;28;20420;-67
2022/03/20 10:21:52;;;;;;;15.70;11.17;;;21.30;41.50;;;;;;5071059;28;20441;-70
2022/03/20 10:24:21;;;;;;;17.93;13.00;;;20.80;40.50;;;;;;5064166;28;20449;-67
2022/03/20 10:26:53;;;;;;;16.17;12.20;;;20.50;40.80;;;;;;5066364;28;20518;-66
2022/03/20 10:29:19;;;;;;;15.70;12.67;;;20.40;40.20;;;;;;5075224;28;20433;-66
2022/03/20 10:31:52;;;;;;;16.90;13.27;;;19.70;40.50;;;;;;5075085;28;20470;-66
2022/03/20 10:34:20;;;;;;;16.37;12.30;;;19.00;40.70;;;;;;5074806;28;20499;-67
2022/03/20 10:36:48;;;;;;;16.20;11.40;;;18.70;41.80;;;;;;5074460;28;20436;-66
2022/03/20 10:39:16;;;;;;;16.73;12.00;;;18.00;42.00;;;;;;5075019;28;20416;-67
2022/03/20 10:41:45;;;;;;;21.23;13.43;;;18.40;43.60;;;;;;5074735;28;20412;-66
2022/03/20 10:44:19;;;;;;;17.50;12.53;;;19.20;42.80;;;;;;5074851;28;20468;-65
2022/03/20 10:47:12;;;;;;;14.57;11.73;;;20.40;41.90;;;;;;5074108;28;20480;-66
2022/03/20 10:49:43;;;;;;;16.50;11.77;;;21.20;40.60;;;;;;5064365;28;20419;-68
2022/03/20 10:52:20;;;;;;;16.47;12.53;;;21.00;40.50;;;;;;5074525;28;20412;-67
2022/03/20 10:54:50;;;;;;;16.07;12.17;;;20.10;40.20;;;;;;5074807;28;20416;-67
2022/03/20 10:57:17;;;;;;;16.20;12.30;;;20.20;41.10;;;;;;5074144;28;20494;-66
2022/03/20 10:59:43;;;;;;;16.90;12.50;;;20.40;40.80;;;;;;5074056;28;20456;-66
2022/03/20 11:02:27;;;;;;;15.63;12.53;;;20.80;40.20;;;;;;5074154;28;20946;-66
2022/03/20 11:04:54;;;;;;;16.10;12.03;;;21.20;40.40;;;;;;5059523;28;20436;-67
2022/03/20 11:07:21;;;;;;;15.70;12.33;;;22.00;40.30;;;;;;5071996;23;20535;-65
2022/03/20 11:09:51;;;;;;;16.43;12.50;;;22.30;39.00;;;;;;5075115;28;20414;-67
2022/03/20 11:12:27;;;;;;;16.27;13.30;;;21.90;38.60;;;;;;5089132;28;20420;-66
2022/03/20 11:14:57;;;;;;;18.00;12.17;;;21.10;38.00;;;;;;5090761;28;20415;-66
2022/03/20 11:17:27;;;;;;;15.23;12.67;;;20.50;39.00;;;;;;5090628;28;20546;-66
2022/03/20 11:19:54;;;;;;;18.20;12.67;;;19.20;40.00;;;;;;5091623;28;20922;-66
2022/03/20 11:22:21;;;;;;;17.37;12.67;;;18.00;41.30;;;;;;5091183;28;20495;-67
2022/03/20 11:24:49;;;;;;;15.30;10.90;;;17.40;43.40;;;;;;5091229;28;20433;-65
2022/03/20 11:27:27;;;;;;;16.07;11.70;;;17.60;43.40;;;;;;5091015;28;20448;-67
2022/03/20 11:30:03;;;;;;;18.97;12.00;;;17.10;44.20;;;;;;5091148;28;20416;-67
2022/03/20 11:32:29;;;;;;;17.40;13.20;;;16.70;45.10;;;;;;5091254;28;20430;-65
2022/03/20 11:34:55;;;;;;;16.90;13.50;;;16.00;46.10;;;;;;5090951;28;20561;-66
2022/03/20 11:37:45;;;;;;;17.20;12.60;;;15.20;47.20;;;;;;5090720;28;20848;-66
2022/03/20 11:40:21;;;;;;;17.93;11.73;;;14.80;49.30;;;;;;5091001;28;20412;-65
2022/03/20 11:42:49;;;;;;;19.20;12.20;;;14.50;50.70;;;;;;5090995;28;20456;-66
2022/03/20 11:45:24;;;;;;;17.57;12.37;;;14.40;51.50;;;;;;5090840;28;20497;-65
2022/03/20 11:47:52;;;;;;;16.37;11.87;;;14.00;52.40;;;;;;5090606;28;20435;-66
2022/03/20 11:50:19;;;;;;;14.47;10.77;;;13.80;54.00;;;;;;5090819;28;20918;-65
2022/03/20 11:52:58;;;;;;;18.27;11.90;;;13.60;55.40;;;;;;5090701;28;20417;-65
2022/03/20 11:55:38;;;;;;;20.07;11.33;;;13.40;56.10;;;;;;5090798;28;20469;-66
2022/03/20 11:58:16;;;;;;;17.70;10.53;;;13.20;57.90;;;;;;5090384;28;20431;-65
2022/03/20 12:00:44;;;;;;;18.13;10.40;;;13.00;60.90;;;;;;5090741;28;20452;-66
2022/03/20 12:03:13;;;;;;;17.87;12.23;;;12.80;64.70;;;;;;5090578;28;20452;-66
2022/03/20 12:05:42;;;;;;;17.23;10.77;;;12.80;67.50;;;;;;5090530;28;20416;-66
2022/03/20 12:08:23;;;;;;;18.87;12.63;;;12.90;71.20;;;;;;5089989;28;20484;-66
2022/03/20 12:11:07;;;;;;;16.63;11.80;;;13.10;71.90;;;;;;5090618;28;20448;-66
2022/03/20 12:14:11;;;;;;;18.53;12.20;;;13.20;74.00;;;;;;5090565;28;20457;-65
2022/03/20 12:16:48;;;;;;;13.47;9.90;;;13.00;76.40;;;;;;5090207;28;20868;-66
2022/03/20 12:19:16;;;;;;;15.60;11.80;;;12.90;78.80;;;;;;5089893;28;20411;-66
2022/03/20 12:22:02;;;;;;;12.90;11.13;;;12.80;82.60;;;;;;5090662;28;20415;-66
2022/03/20 12:24:39;;;;;;;13.93;10.30;;;12.80;85.40;;;;;;5090343;28;21051;-66
2022/03/20 12:27:23;;;;;;;17.37;11.07;;;12.80;87.70;;;;;;5089926;28;20432;-65
2022/03/20 12:30:11;;;;;;;15.63;11.07;;;12.70;90.30;;;;;;5090472;28;20416;-66
2022/03/20 12:32:49;;;;;;;13.00;9.67;;;12.60;93.70;;;;;;5090447;28;20412;-66
2022/03/20 12:35:19;;;;;;;16.83;10.30;;;12.40;99.90;;;;;;5089852;28;20411;-65
2022/03/20 12:37:45;;;;;;;14.27;11.13;;;12.10;99.90;;;;;;5088078;28;21003;-65
2022/03/20 12:40:31;;;;;;;16.90;11.23;;;11.70;99.90;;;;;;5090028;28;20419;-66
2022/03/20 12:43:08;;;;;;;22.10;12.50;;;11.40;99.90;;;;;;5089841;28;20978;-66
2022/03/20 12:45:37;;;;;;;17.57;12.30;;;11.10;99.90;;;;;;5089879;28;20424;-66
2022/03/20 12:48:07;;;;;;;15.80;10.83;;;11.00;99.90;;;;;;5089969;28;20433;-65
2022/03/20 12:50:36;;;;;;;14.60;10.73;;;10.90;99.90;;;;;;5081638;28;20420;-65
2022/03/20 12:53:14;;;;;;;15.67;10.43;;;10.80;99.90;;;;;;5078461;28;20439;-64
2022/03/20 12:55:40;;;;;;;21.80;11.50;;;10.60;99.90;;;;;;5069657;28;20424;-63
2022/03/20 12:58:13;;;;;;;17.20;12.07;;;10.60;99.90;;;;;;5069519;28;20441;-66
2022/03/20 13:00:39;;;;;;;14.53;10.47;;;10.60;99.90;;;;;;5070055;28;20416;-66
2022/03/20 13:03:09;;;;;;;15.70;10.70;;;10.60;99.90;;;;;;5069561;28;20802;-66
2022/03/20 13:05:34;;;;;;;17.40;10.03;;;10.60;99.90;;;;;;5069220;28;20181;-66
2022/03/20 13:08:01;;;;;;;22.47;12.07;;;10.60;99.90;;;;;;5069291;28;20828;-66
2022/03/20 13:10:38;;;;;;;17.90;9.77;;;10.60;99.90;;;;;;5069677;28;20534;-66
2022/03/20 13:13:08;;;;;;;15.10;8.90;;;10.50;99.90;;;;;;5069561;28;20917;-65
2022/03/20 13:15:40;;;;;;;20.07;11.73;;;10.30;99.90;;;;;;5069921;28;20946;-67
2022/03/20 13:18:08;;;;;;;16.87;10.80;;;10.10;99.90;;;;;;5069024;28;20440;-66